Conyers, GA (30012)

11:14 AM EDT on March 30, 2015 (GMT -0400)
Zingara Rd | | Change Station
CLOSE
Current Station
Personal Weather Station
Location: Conyers, GA
Elevation: 817 ft
Nearby Weather Stations

Elev 817 ft 33.73 °N, 83.99 °W | Updated 8 seconds ago

Mostly Cloudy
Mostly Cloudy
60.8 °F
Feels Like 60.8 °F
N
4.6
Wind Variable Wind from SW
Gusts 4.6 mph

Today
High -- | Low -- °F
--% Chance of Precip.
Yesterday
High -- | Low -- °F
Precip. -- in
7:26 AM 7:54 PM
Waxing Gibbous, 80% visible
Pressure 30.13 in
Visibility 10.0 miles
Clouds Scattered Clouds 4700 ft
Scattered Clouds 5000 ft
Mostly Cloudy 6000 ft
Dew Point 60 °F
Humidity 98%
Rainfall 0.24 in
Snow Depth Not available.
UV 3 out of 12
Pollen 9.50 out of 12
Air Quality Not available.
Flu Activity Not available.
METAR KCVC 301455Z AUTO 24003KT 10SM SCT047 SCT050 BKN060 15/13 A3013 RMK AO2

More Conditions Fewer Conditions

Pressure 30.13 in
Visibility 10.0 miles
Clouds Scattered Clouds 4700 ft
Scattered Clouds 5000 ft
Mostly Cloudy 6000 ft
Dew Point 60 °F
Humidity 98%
Rainfall 0.24 in
Snow Depth Not available.
UV 3 out of 12
Pollen 9.50 out of 12
Air Quality Not available.
Flu Activity Not available.
METAR KCVC 301455Z AUTO 24003KT 10SM SCT047 SCT050 BKN060 15/13 A3013 RMK AO2

More Conditions Fewer Conditions

10-Day Weather Forecast

Almanac

Astronomy

Mar. 30, 2015 Rise Set
Actual Time
Civil Twilight
Nautical Twilight
Astronomical Twilight
Moon
Length of Visible Light
Length of Day
Tomorrow will be .
, % of the Moon is Illuminated

Today's Extremes

State Highs State Lows

Community

WunderPhotos

Upload Photos

1,809,519 photos uploaded!

WunderBlogs® & News

Nearby

Air Quality

  Air Quality AQ Index Pollutant
Not available.

Snow Depth

Station Depth Elevation

Earthquake Activity

City Distance Mag. Time & Date
Minimum magnitude displayed is 2.5.

Coastal Water Temperatures

Place Temperature

Stations

Nearby Weather Stations

Station Location Temp. Windchill Dew Point Humidity Wind Precip. Elev Updated Type